Roanoke, VA

11:42 PM EST on December 25, 2014 (GMT -0500)
APRSWXNET Roanoke VA US | Change Station
CLOSE
Current Station
Personal Weather Station
Location: Roanoke, VA
Elevation: 941 ft
Nearby Weather Stations

Elev 941 ft 37.27 °N, 79.94 °W | Updated 39 minutes ago

Clear
Clear
39 °F
Feels Like 39 °F
N
0
Wind Variable Wind from West
Gusts 1.0 mph

Today
High -- | Low -- °F
--% Chance of Precip.
Yesterday
High -- | Low -- °F
Precip. -- in
7:31 AM 5:08 PM
Waxing Crescent, 22% visible
Pressure 30.25 in
Visibility 10.0 miles
Clouds Clear
Windchill 39 °F
Dew Point 31 °F
Humidity 72%
Rainfall 0.00 in
Snow Depth Not available.
UV 0 out of 12
Pollen .10 out of 12
Air Quality Not available.
Flu Activity Not available.
METAR KROA 260354Z 00000KT 10SM CLR 04/M02 A3024 RMK AO2 SLP243 T00391022

More Conditions Fewer Conditions

Pressure 30.25 in
Visibility 10.0 miles
Clouds Clear
Windchill 39 °F
Dew Point 31 °F
Humidity 72%
Rainfall 0.00 in
Snow Depth Not available.
UV 0 out of 12
Pollen .10 out of 12
Air Quality Not available.
Flu Activity Not available.
METAR KROA 260354Z 00000KT 10SM CLR 04/M02 A3024 RMK AO2 SLP243 T00391022

More Conditions Fewer Conditions

10-Day Weather Forecast

Almanac

Astronomy

Dec. 25, 2014 Rise Set
Actual Time
Civil Twilight
Nautical Twilight
Astronomical Twilight
Moon
Length of Visible Light
Length of Day
Tomorrow will be .
, % of the Moon is Illuminated

Today's Extremes

State Highs State Lows

Community

WunderPhotos

Upload Photos

1,780,537 photos uploaded!

WunderBlogs® & News

Nearby

Air Quality

  Air Quality AQ Index Pollutant
Not available.

Snow Depth

Station Depth Elevation

Earthquake Activity

City Distance Mag. Time & Date
Minimum magnitude displayed is 2.5.

Coastal Water Temperatures

Place Temperature

Nearby Weather Stations